sensor_id;sensor_type;location;lat;lon;timestamp;temperature;humidity
28244;DHT22;15510;52.512;13.300;2023-03-11T00:00:16;2.80;99.90
28244;DHT22;15510;52.512;13.300;2023-03-11T00:02:44;2.70;99.90
28244;DHT22;15510;52.512;13.300;2023-03-11T00:05:22;2.70;99.90
28244;DHT22;15510;52.512;13.300;2023-03-11T00:07:49;2.60;99.90
28244;DHT22;15510;52.512;13.300;2023-03-11T00:10:38;2.50;99.90
28244;DHT22;15510;52.512;13.300;2023-03-11T00:13:04;2.40;99.90
28244;DHT22;15510;52.512;13.300;2023-03-11T00:15:30;2.30;99.90
28244;DHT22;15510;52.512;13.300;2023-03-11T00:17:56;2.20;99.90
28244;DHT22;15510;52.512;13.300;2023-03-11T00:20:29;2.20;99.90
28244;DHT22;15510;52.512;13.300;2023-03-11T00:22:55;2.20;99.90
28244;DHT22;15510;52.512;13.300;2023-03-11T00:25:25;2.10;99.90
28244;DHT22;15510;52.512;13.300;2023-03-11T00:27:52;2.00;99.90
28244;DHT22;15510;52.512;13.300;2023-03-11T00:30:21;2.00;99.90
28244;DHT22;15510;52.512;13.300;2023-03-11T00:32:52;2.10;99.90
28244;DHT22;15510;52.512;13.300;2023-03-11T00:35:21;2.00;99.90
28244;DHT22;15510;52.512;13.300;2023-03-11T00:37:53;2.00;99.90
28244;DHT22;15510;52.512;13.300;2023-03-11T00:40:24;1.90;99.90
28244;DHT22;15510;52.512;13.300;2023-03-11T00:43:01;1.90;99.90
28244;DHT22;15510;52.512;13.300;2023-03-11T00:45:27;1.90;99.90
28244;DHT22;15510;52.512;13.300;2023-03-11T00:47:54;1.90;99.90
28244;DHT22;15510;52.512;13.300;2023-03-11T00:50:26;1.80;99.90
28244;DHT22;15510;52.512;13.300;2023-03-11T00:52:55;1.80;99.90
28244;DHT22;15510;52.512;13.300;2023-03-11T00:55:24;1.70;99.90
28244;DHT22;15510;52.512;13.300;2023-03-11T00:57:51;1.70;99.90
28244;DHT22;15510;52.512;13.300;2023-03-11T01:00:22;1.70;99.90
28244;DHT22;15510;52.512;13.300;2023-03-11T01:02:49;1.70;99.90
28244;DHT22;15510;52.512;13.300;2023-03-11T01:05:19;1.70;99.90
28244;DHT22;15510;52.512;13.300;2023-03-11T01:07:45;1.70;99.90
28244;DHT22;15510;52.512;13.300;2023-03-11T01:10:11;1.70;99.90
28244;DHT22;15510;52.512;13.300;2023-03-11T01:12:37;1.80;99.90
28244;DHT22;15510;52.512;13.300;2023-03-11T01:15:04;1.80;99.90
28244;DHT22;15510;52.512;13.300;2023-03-11T01:17:30;1.80;99.90
28244;DHT22;15510;52.512;13.300;2023-03-11T01:19:56;1.80;99.90
28244;DHT22;15510;52.512;13.300;2023-03-11T01:22:22;1.80;99.90
28244;DHT22;15510;52.512;13.300;2023-03-11T01:24:48;1.80;99.90
28244;DHT22;15510;52.512;13.300;2023-03-11T01:27:16;1.80;99.90
28244;DHT22;15510;52.512;13.300;2023-03-11T01:29:42;1.80;99.90
28244;DHT22;15510;52.512;13.300;2023-03-11T01:32:11;1.80;99.90
28244;DHT22;15510;52.512;13.300;2023-03-11T01:34:37;1.80;99.90
28244;DHT22;15510;52.512;13.300;2023-03-11T01:37:03;1.80;99.90
28244;DHT22;15510;52.512;13.300;2023-03-11T01:39:31;1.80;99.90
28244;DHT22;15510;52.512;13.300;2023-03-11T01:41:57;1.70;99.90
28244;DHT22;15510;52.512;13.300;2023-03-11T01:44:23;1.70;99.90
28244;DHT22;15510;52.512;13.300;2023-03-11T01:49:24;1.60;99.90
28244;DHT22;15510;52.512;13.300;2023-03-11T01:51:52;1.70;99.90
28244;DHT22;15510;52.512;13.300;2023-03-11T01:54:28;1.70;99.90
28244;DHT22;15510;52.512;13.300;2023-03-11T01:56:55;1.70;99.90
28244;DHT22;15510;52.512;13.300;2023-03-11T01:59:32;1.70;99.90
28244;DHT22;15510;52.512;13.300;2023-03-11T02:04:45;1.80;99.90
28244;DHT22;15510;52.512;13.300;2023-03-11T02:07:14;1.80;99.90
28244;DHT22;15510;52.512;13.300;2023-03-11T02:09:39;1.80;99.90
28244;DHT22;15510;52.512;13.300;2023-03-11T02:12:07;1.90;99.90
28244;DHT22;15510;52.512;13.300;2023-03-11T02:14:34;1.80;99.90
28244;DHT22;15510;52.512;13.300;2023-03-11T02:17:00;1.80;99.90
28244;DHT22;15510;52.512;13.300;2023-03-11T02:22:18;1.80;99.90
28244;DHT22;15510;52.512;13.300;2023-03-11T02:27:34;1.80;99.90
28244;DHT22;15510;52.512;13.300;2023-03-11T02:30:03;1.80;99.90
28244;DHT22;15510;52.512;13.300;2023-03-11T02:32:33;1.80;99.90
28244;DHT22;15510;52.512;13.300;2023-03-11T02:34:59;1.80;99.90
28244;DHT22;15510;52.512;13.300;2023-03-11T02:37:25;1.80;99.90
28244;DHT22;15510;52.512;13.300;2023-03-11T02:43:08;1.80;99.90
28244;DHT22;15510;52.512;13.300;2023-03-11T02:45:37;1.90;99.90
28244;DHT22;15510;52.512;13.300;2023-03-11T02:48:06;1.90;99.90
28244;DHT22;15510;52.512;13.300;2023-03-11T02:50:33;1.90;99.90
28244;DHT22;15510;52.512;13.300;2023-03-11T02:53:04;1.90;99.90
28244;DHT22;15510;52.512;13.300;2023-03-11T02:55:30;1.90;99.90
28244;DHT22;15510;52.512;13.300;2023-03-11T02:57:56;1.90;99.90
28244;DHT22;15510;52.512;13.300;2023-03-11T03:00:22;1.80;99.90
28244;DHT22;15510;52.512;13.300;2023-03-11T03:02:54;1.80;99.90
28244;DHT22;15510;52.512;13.300;2023-03-11T03:05:21;1.80;99.90
28244;DHT22;15510;52.512;13.300;2023-03-11T03:07:49;1.90;99.90
28244;DHT22;15510;52.512;13.300;2023-03-11T03:10:17;1.90;99.90
28244;DHT22;15510;52.512;13.300;2023-03-11T03:12:43;1.90;99.90
28244;DHT22;15510;52.512;13.300;2023-03-11T03:15:09;1.90;99.90
28244;DHT22;15510;52.512;13.300;2023-03-11T03:17:36;1.80;99.90
28244;DHT22;15510;52.512;13.300;2023-03-11T03:20:06;1.80;99.90
28244;DHT22;15510;52.512;13.300;2023-03-11T03:22:37;1.80;99.90
28244;DHT22;15510;52.512;13.300;2023-03-11T03:25:04;1.80;99.90
28244;DHT22;15510;52.512;13.300;2023-03-11T03:27:30;1.70;99.90
28244;DHT22;15510;52.512;13.300;2023-03-11T03:29:57;1.70;99.90
28244;DHT22;15510;52.512;13.300;2023-03-11T03:32:23;1.70;99.90
28244;DHT22;15510;52.512;13.300;2023-03-11T03:34:49;1.70;99.90
28244;DHT22;15510;52.512;13.300;2023-03-11T03:37:15;1.70;99.90
28244;DHT22;15510;52.512;13.300;2023-03-11T03:39:41;1.70;99.90
28244;DHT22;15510;52.512;13.300;2023-03-11T03:42:07;1.70;99.90
28244;DHT22;15510;52.512;13.300;2023-03-11T03:44:36;1.70;99.90
28244;DHT22;15510;52.512;13.300;2023-03-11T03:47:02;1.70;99.90
28244;DHT22;15510;52.512;13.300;2023-03-11T03:49:28;1.70;99.90
28244;DHT22;15510;52.512;13.300;2023-03-11T03:51:55;1.70;99.90
28244;DHT22;15510;52.512;13.300;2023-03-11T03:54:28;1.70;99.90
28244;DHT22;15510;52.512;13.300;2023-03-11T03:56:54;1.70;99.90
28244;DHT22;15510;52.512;13.300;2023-03-11T03:59:20;1.70;99.90
28244;DHT22;15510;52.512;13.300;2023-03-11T04:01:51;1.70;99.90
28244;DHT22;15510;52.512;13.300;2023-03-11T04:04:18;1.80;99.90
28244;DHT22;15510;52.512;13.300;2023-03-11T04:06:44;1.80;99.90
28244;DHT22;15510;52.512;13.300;2023-03-11T04:09:10;1.80;99.90
28244;DHT22;15510;52.512;13.300;2023-03-11T04:11:36;1.70;99.90
28244;DHT22;15510;52.512;13.300;2023-03-11T04:14:04;1.70;99.90
28244;DHT22;15510;52.512;13.300;2023-03-11T04:16:32;1.70;99.90
28244;DHT22;15510;52.512;13.300;2023-03-11T04:19:03;1.70;99.90
28244;DHT22;15510;52.512;13.300;2023-03-11T04:21:31;1.80;99.90
28244;DHT22;15510;52.512;13.300;2023-03-11T04:23:57;1.70;99.90
28244;DHT22;15510;52.512;13.300;2023-03-11T04:26:29;1.70;99.90
28244;DHT22;15510;52.512;13.300;2023-03-11T04:28:55;1.70;99.90
28244;DHT22;15510;52.512;13.300;2023-03-11T04:31:22;1.80;99.90
28244;DHT22;15510;52.512;13.300;2023-03-11T04:33:48;1.70;99.90
28244;DHT22;15510;52.512;13.300;2023-03-11T04:36:14;1.70;99.90
28244;DHT22;15510;52.512;13.300;2023-03-11T04:38:41;1.70;99.90
28244;DHT22;15510;52.512;13.300;2023-03-11T04:41:09;1.80;99.90
28244;DHT22;15510;52.512;13.300;2023-03-11T04:43:38;1.80;99.90
28244;DHT22;15510;52.512;13.300;2023-03-11T04:46:04;1.80;99.90
28244;DHT22;15510;52.512;13.300;2023-03-11T04:48:30;1.80;99.90
28244;DHT22;15510;52.512;13.300;2023-03-11T04:50:56;1.80;99.90
28244;DHT22;15510;52.512;13.300;2023-03-11T04:53:23;1.80;99.90
28244;DHT22;15510;52.512;13.300;2023-03-11T04:55:50;1.80;99.90
28244;DHT22;15510;52.512;13.300;2023-03-11T04:58:17;1.80;99.90
28244;DHT22;15510;52.512;13.300;2023-03-11T05:00:45;1.90;99.90
28244;DHT22;15510;52.512;13.300;2023-03-11T05:03:12;1.80;99.90
28244;DHT22;15510;52.512;13.300;2023-03-11T05:05:39;1.90;99.90
28244;DHT22;15510;52.512;13.300;2023-03-11T05:08:05;1.80;99.90
28244;DHT22;15510;52.512;13.300;2023-03-11T05:10:31;1.90;99.90
28244;DHT22;15510;52.512;13.300;2023-03-11T05:12:59;1.90;99.90
28244;DHT22;15510;52.512;13.300;2023-03-11T05:15:30;1.90;99.90
28244;DHT22;15510;52.512;13.300;2023-03-11T05:17:59;1.90;99.90
28244;DHT22;15510;52.512;13.300;2023-03-11T05:20:25;1.90;99.90
28244;DHT22;15510;52.512;13.300;2023-03-11T05:22:51;2.00;99.90
28244;DHT22;15510;52.512;13.300;2023-03-11T05:25:17;1.90;99.90
28244;DHT22;15510;52.512;13.300;2023-03-11T05:27:43;1.90;99.90
28244;DHT22;15510;52.512;13.300;2023-03-11T05:30:10;1.90;99.90
28244;DHT22;15510;52.512;13.300;2023-03-11T05:32:38;1.90;99.90
28244;DHT22;15510;52.512;13.300;2023-03-11T05:35:05;2.00;99.90
28244;DHT22;15510;52.512;13.300;2023-03-11T05:37:31;2.00;99.90
28244;DHT22;15510;52.512;13.300;2023-03-11T05:39:59;2.00;99.90
28244;DHT22;15510;52.512;13.300;2023-03-11T05:42:25;2.00;99.90
28244;DHT22;15510;52.512;13.300;2023-03-11T05:44:53;2.00;99.90
28244;DHT22;15510;52.512;13.300;2023-03-11T05:47:21;2.00;99.90
28244;DHT22;15510;52.512;13.300;2023-03-11T05:49:48;2.00;99.90
28244;DHT22;15510;52.512;13.300;2023-03-11T05:52:16;2.00;99.90
28244;DHT22;15510;52.512;13.300;2023-03-11T05:54:42;2.00;99.90
28244;DHT22;15510;52.512;13.300;2023-03-11T05:57:09;2.00;99.90
28244;DHT22;15510;52.512;13.300;2023-03-11T05:59:35;2.00;99.90
28244;DHT22;15510;52.512;13.300;2023-03-11T06:02:03;2.00;99.90
28244;DHT22;15510;52.512;13.300;2023-03-11T06:04:29;2.00;99.90
28244;DHT22;15510;52.512;13.300;2023-03-11T06:06:56;2.00;99.90
28244;DHT22;15510;52.512;13.300;2023-03-11T06:09:25;2.00;99.90
28244;DHT22;15510;52.512;13.300;2023-03-11T06:11:52;2.00;99.90
28244;DHT22;15510;52.512;13.300;2023-03-11T06:14:20;2.00;99.90
28244;DHT22;15510;52.512;13.300;2023-03-11T06:16:48;2.00;99.90
28244;DHT22;15510;52.512;13.300;2023-03-11T06:19:15;2.00;99.90
28244;DHT22;15510;52.512;13.300;2023-03-11T06:21:48;2.00;99.90
28244;DHT22;15510;52.512;13.300;2023-03-11T06:24:16;2.00;99.90
28244;DHT22;15510;52.512;13.300;2023-03-11T06:26:42;2.00;99.90
28244;DHT22;15510;52.512;13.300;2023-03-11T06:29:14;2.00;99.90
28244;DHT22;15510;52.512;13.300;2023-03-11T06:31:40;2.00;99.90
28244;DHT22;15510;52.512;13.300;2023-03-11T06:34:10;2.10;99.90
28244;DHT22;15510;52.512;13.300;2023-03-11T06:36:36;2.10;99.90
28244;DHT22;15510;52.512;13.300;2023-03-11T06:39:03;2.10;99.90
28244;DHT22;15510;52.512;13.300;2023-03-11T06:41:32;2.10;99.90
28244;DHT22;15510;52.512;13.300;2023-03-11T06:43:58;2.10;99.90
28244;DHT22;15510;52.512;13.300;2023-03-11T06:46:25;2.10;99.90
28244;DHT22;15510;52.512;13.300;2023-03-11T06:48:53;2.20;99.90
28244;DHT22;15510;52.512;13.300;2023-03-11T06:51:20;2.20;99.90
28244;DHT22;15510;52.512;13.300;2023-03-11T06:53:51;2.30;99.90
28244;DHT22;15510;52.512;13.300;2023-03-11T06:56:19;2.40;99.90
28244;DHT22;15510;52.512;13.300;2023-03-11T06:58:49;2.50;99.90
28244;DHT22;15510;52.512;13.300;2023-03-11T07:01:20;2.50;99.90
28244;DHT22;15510;52.512;13.300;2023-03-11T07:03:47;2.40;99.90
28244;DHT22;15510;52.512;13.300;2023-03-11T07:06:20;2.40;99.90
28244;DHT22;15510;52.512;13.300;2023-03-11T07:08:47;2.30;99.90
28244;DHT22;15510;52.512;13.300;2023-03-11T07:11:16;2.30;99.90
28244;DHT22;15510;52.512;13.300;2023-03-11T07:13:42;2.30;99.90
28244;DHT22;15510;52.512;13.300;2023-03-11T07:16:11;2.30;99.90
28244;DHT22;15510;52.512;13.300;2023-03-11T07:18:40;2.40;99.90
28244;DHT22;15510;52.512;13.300;2023-03-11T07:21:07;2.40;99.90
28244;DHT22;15510;52.512;13.300;2023-03-11T07:23:33;2.40;99.90
28244;DHT22;15510;52.512;13.300;2023-03-11T07:26:00;2.40;99.90
28244;DHT22;15510;52.512;13.300;2023-03-11T07:28:26;2.40;99.90
28244;DHT22;15510;52.512;13.300;2023-03-11T07:30:52;2.40;99.90
28244;DHT22;15510;52.512;13.300;2023-03-11T07:33:18;2.50;99.90
28244;DHT22;15510;52.512;13.300;2023-03-11T07:35:44;2.50;99.90
28244;DHT22;15510;52.512;13.300;2023-03-11T07:38:11;2.50;99.90
28244;DHT22;15510;52.512;13.300;2023-03-11T07:40:37;2.60;99.90
28244;DHT22;15510;52.512;13.300;2023-03-11T07:43:03;2.50;99.90
28244;DHT22;15510;52.512;13.300;2023-03-11T07:45:28;2.40;99.90
28244;DHT22;15510;52.512;13.300;2023-03-11T07:47:54;2.50;99.90
28244;DHT22;15510;52.512;13.300;2023-03-11T07:50:20;2.70;99.90
28244;DHT22;15510;52.512;13.300;2023-03-11T07:52:47;2.80;99.90
28244;DHT22;15510;52.512;13.300;2023-03-11T07:55:13;2.80;99.90
28244;DHT22;15510;52.512;13.300;2023-03-11T07:57:39;2.80;99.90
28244;DHT22;15510;52.512;13.300;2023-03-11T08:00:05;3.00;99.90
28244;DHT22;15510;52.512;13.300;2023-03-11T08:02:37;3.20;99.90
28244;DHT22;15510;52.512;13.300;2023-03-11T08:05:03;3.20;99.90
28244;DHT22;15510;52.512;13.300;2023-03-11T08:07:31;3.10;99.90
28244;DHT22;15510;52.512;13.300;2023-03-11T08:09:56;3.20;99.90
28244;DHT22;15510;52.512;13.300;2023-03-11T08:12:22;3.30;99.90
28244;DHT22;15510;52.512;13.300;2023-03-11T08:14:48;3.40;99.90
28244;DHT22;15510;52.512;13.300;2023-03-11T08:17:14;3.40;99.90
28244;DHT22;15510;52.512;13.300;2023-03-11T08:19:39;3.40;99.90
28244;DHT22;15510;52.512;13.300;2023-03-11T08:22:05;3.40;99.90
28244;DHT22;15510;52.512;13.300;2023-03-11T08:24:32;3.50;99.90
28244;DHT22;15510;52.512;13.300;2023-03-11T08:26:58;3.50;99.90
28244;DHT22;15510;52.512;13.300;2023-03-11T08:29:24;3.60;99.90
28244;DHT22;15510;52.512;13.300;2023-03-11T08:31:49;3.60;99.90
28244;DHT22;15510;52.512;13.300;2023-03-11T08:34:15;3.60;99.90
28244;DHT22;15510;52.512;13.300;2023-03-11T08:36:42;3.40;99.90
28244;DHT22;15510;52.512;13.300;2023-03-11T08:39:08;3.40;99.90
28244;DHT22;15510;52.512;13.300;2023-03-11T08:41:34;3.50;99.90
28244;DHT22;15510;52.512;13.300;2023-03-11T08:44:00;3.40;99.90
28244;DHT22;15510;52.512;13.300;2023-03-11T08:46:27;3.60;99.90
28244;DHT22;15510;52.512;13.300;2023-03-11T08:48:54;3.70;99.90
28244;DHT22;15510;52.512;13.300;2023-03-11T08:51:21;3.80;99.90
28244;DHT22;15510;52.512;13.300;2023-03-11T08:53:48;3.90;99.90
28244;DHT22;15510;52.512;13.300;2023-03-11T08:56:14;3.60;99.90
28244;DHT22;15510;52.512;13.300;2023-03-11T08:58:39;3.70;99.90
28244;DHT22;15510;52.512;13.300;2023-03-11T09:01:06;3.70;99.90
28244;DHT22;15510;52.512;13.300;2023-03-11T09:03:34;3.80;99.90
28244;DHT22;15510;52.512;13.300;2023-03-11T09:06:05;3.80;99.90
28244;DHT22;15510;52.512;13.300;2023-03-11T09:08:31;3.90;99.90
28244;DHT22;15510;52.512;13.300;2023-03-11T09:10:57;3.90;99.90
28244;DHT22;15510;52.512;13.300;2023-03-11T09:13:23;3.90;99.90
28244;DHT22;15510;52.512;13.300;2023-03-11T09:15:50;4.10;99.90
28244;DHT22;15510;52.512;13.300;2023-03-11T09:18:17;4.20;99.90
28244;DHT22;15510;52.512;13.300;2023-03-11T09:20:43;4.20;99.90
28244;DHT22;15510;52.512;13.300;2023-03-11T09:23:12;4.30;99.90
28244;DHT22;15510;52.512;13.300;2023-03-11T09:25:38;4.30;99.90
28244;DHT22;15510;52.512;13.300;2023-03-11T09:28:04;4.30;99.90
28244;DHT22;15510;52.512;13.300;2023-03-11T09:30:29;4.30;99.90
28244;DHT22;15510;52.512;13.300;2023-03-11T09:32:55;4.20;99.90
28244;DHT22;15510;52.512;13.300;2023-03-11T09:35:21;4.10;99.90
28244;DHT22;15510;52.512;13.300;2023-03-11T09:37:47;4.00;99.90
28244;DHT22;15510;52.512;13.300;2023-03-11T09:40:19;4.00;99.90
28244;DHT22;15510;52.512;13.300;2023-03-11T09:45:51;3.80;99.90
28244;DHT22;15510;52.512;13.300;2023-03-11T09:48:40;3.90;99.90
28244;DHT22;15510;52.512;13.300;2023-03-11T09:51:14;3.80;99.90
28244;DHT22;15510;52.512;13.300;2023-03-11T09:53:43;3.70;99.90
28244;DHT22;15510;52.512;13.300;2023-03-11T09:56:14;3.70;99.90
28244;DHT22;15510;52.512;13.300;2023-03-11T09:58:51;3.70;99.90
28244;DHT22;15510;52.512;13.300;2023-03-11T10:01:22;3.70;99.90
28244;DHT22;15510;52.512;13.300;2023-03-11T10:03:51;3.70;99.90
28244;DHT22;15510;52.512;13.300;2023-03-11T10:06:22;3.70;99.90
28244;DHT22;15510;52.512;13.300;2023-03-11T10:22:49;4.20;99.90
28244;DHT22;15510;52.512;13.300;2023-03-11T10:25:21;4.40;99.90
28244;DHT22;15510;52.512;13.300;2023-03-11T10:28:04;4.70;99.90
28244;DHT22;15510;52.512;13.300;2023-03-11T10:34:03;5.10;99.90
28244;DHT22;15510;52.512;13.300;2023-03-11T10:39:18;5.20;99.90
28244;DHT22;15510;52.512;13.300;2023-03-11T10:42:03;5.00;99.90
28244;DHT22;15510;52.512;13.300;2023-03-11T10:44:37;4.80;99.90
28244;DHT22;15510;52.512;13.300;2023-03-11T10:47:04;4.70;99.90
28244;DHT22;15510;52.512;13.300;2023-03-11T10:49:30;4.70;99.90
28244;DHT22;15510;52.512;13.300;2023-03-11T10:51:57;4.60;99.90
28244;DHT22;15510;52.512;13.300;2023-03-11T10:54:34;4.60;99.90
28244;DHT22;15510;52.512;13.300;2023-03-11T10:57:08;4.70;99.90
28244;DHT22;15510;52.512;13.300;2023-03-11T10:59:48;4.70;99.90
28244;DHT22;15510;52.512;13.300;2023-03-11T11:02:30;4.60;99.90
28244;DHT22;15510;52.512;13.300;2023-03-11T11:05:12;4.50;99.90
28244;DHT22;15510;52.512;13.300;2023-03-11T11:07:50;4.50;99.90
28244;DHT22;15510;52.512;13.300;2023-03-11T11:10:24;4.60;99.90
28244;DHT22;15510;52.512;13.300;2023-03-11T11:15:39;4.30;99.90
28244;DHT22;15510;52.512;13.300;2023-03-11T11:18:15;4.70;99.90
28244;DHT22;15510;52.512;13.300;2023-03-11T11:21:02;5.10;99.90
28244;DHT22;15510;52.512;13.300;2023-03-11T11:26:00;5.40;99.90
28244;DHT22;15510;52.512;13.300;2023-03-11T11:28:26;5.40;99.90
28244;DHT22;15510;52.512;13.300;2023-03-11T11:30:58;5.20;99.90
28244;DHT22;15510;52.512;13.300;2023-03-11T11:33:51;5.30;99.90
28244;DHT22;15510;52.512;13.300;2023-03-11T11:36:20;5.40;99.90
28244;DHT22;15510;52.512;13.300;2023-03-11T11:38:51;5.30;99.90
28244;DHT22;15510;52.512;13.300;2023-03-11T11:41:21;5.40;99.90
28244;DHT22;15510;52.512;13.300;2023-03-11T11:43:54;5.60;99.90
28244;DHT22;15510;52.512;13.300;2023-03-11T11:47:06;6.20;99.90
28244;DHT22;15510;52.512;13.300;2023-03-11T11:51:46;6.70;99.90
28244;DHT22;15510;52.512;13.300;2023-03-11T11:54:27;6.50;99.90
28244;DHT22;15510;52.512;13.300;2023-03-11T11:56:54;6.50;99.90
28244;DHT22;15510;52.512;13.300;2023-03-11T11:59:22;6.40;99.90
28244;DHT22;15510;52.512;13.300;2023-03-11T12:07:28;7.30;99.90
28244;DHT22;15510;52.512;13.300;2023-03-11T12:12:47;8.00;99.90
28244;DHT22;15510;52.512;13.300;2023-03-11T12:18:58;9.30;99.90
28244;DHT22;15510;52.512;13.300;2023-03-11T12:21:10;9.40;99.90
28244;DHT22;15510;52.512;13.300;2023-03-11T12:23:51;8.90;99.90
28244;DHT22;15510;52.512;13.300;2023-03-11T12:26:24;8.30;99.90
28244;DHT22;15510;52.512;13.300;2023-03-11T12:29:02;8.00;99.90
28244;DHT22;15510;52.512;13.300;2023-03-11T12:31:35;7.40;99.90
28244;DHT22;15510;52.512;13.300;2023-03-11T12:34:06;7.20;99.90
28244;DHT22;15510;52.512;13.300;2023-03-11T12:36:34;7.20;99.90
28244;DHT22;15510;52.512;13.300;2023-03-11T12:39:03;6.80;99.90
28244;DHT22;15510;52.512;13.300;2023-03-11T12:41:35;6.60;99.90
28244;DHT22;15510;52.512;13.300;2023-03-11T12:44:28;6.40;99.90
28244;DHT22;15510;52.512;13.300;2023-03-11T12:50:35;6.50;99.90
28244;DHT22;15510;52.512;13.300;2023-03-11T12:52:53;6.30;99.90
28244;DHT22;15510;52.512;13.300;2023-03-11T12:55:27;6.20;99.90
28244;DHT22;15510;52.512;13.300;2023-03-11T12:58:00;6.10;99.90
28244;DHT22;15510;52.512;13.300;2023-03-11T13:00:34;6.10;99.90
28244;DHT22;15510;52.512;13.300;2023-03-11T13:03:15;6.40;99.90
28244;DHT22;15510;52.512;13.300;2023-03-11T13:08:55;6.10;99.90
28244;DHT22;15510;52.512;13.300;2023-03-11T13:16:46;5.20;99.90
28244;DHT22;15510;52.512;13.300;2023-03-11T13:22:00;5.40;99.90
28244;DHT22;15510;52.512;13.300;2023-03-11T13:29:46;5.90;99.90
28244;DHT22;15510;52.512;13.300;2023-03-11T13:45:28;6.20;99.90
28244;DHT22;15510;52.512;13.300;2023-03-11T13:48:31;6.10;99.90
28244;DHT22;15510;52.512;13.300;2023-03-11T13:51:05;6.10;99.90
28244;DHT22;15510;52.512;13.300;2023-03-11T13:53:42;6.10;99.90
28244;DHT22;15510;52.512;13.300;2023-03-11T13:58:47;6.30;99.90
28244;DHT22;15510;52.512;13.300;2023-03-11T14:01:15;6.30;99.90
28244;DHT22;15510;52.512;13.300;2023-03-11T14:03:42;6.20;99.90
28244;DHT22;15510;52.512;13.300;2023-03-11T14:06:13;6.40;99.90
28244;DHT22;15510;52.512;13.300;2023-03-11T14:08:40;6.10;99.90
28244;DHT22;15510;52.512;13.300;2023-03-11T14:13:45;5.80;99.90
28244;DHT22;15510;52.512;13.300;2023-03-11T14:16:31;5.70;99.90
28244;DHT22;15510;52.512;13.300;2023-03-11T14:19:13;5.40;99.90
28244;DHT22;15510;52.512;13.300;2023-03-11T14:21:50;5.40;99.90
28244;DHT22;15510;52.512;13.300;2023-03-11T14:26:43;5.60;99.90
28244;DHT22;15510;52.512;13.300;2023-03-11T14:29:15;5.90;99.90
28244;DHT22;15510;52.512;13.300;2023-03-11T14:31:42;5.80;99.90
28244;DHT22;15510;52.512;13.300;2023-03-11T14:36:43;5.70;99.90
28244;DHT22;15510;52.512;13.300;2023-03-11T14:39:32;5.50;99.90
28244;DHT22;15510;52.512;13.300;2023-03-11T14:44:56;5.00;99.90
28244;DHT22;15510;52.512;13.300;2023-03-11T14:50:09;5.00;99.90
28244;DHT22;15510;52.512;13.300;2023-03-11T14:55:28;5.20;99.90
28244;DHT22;15510;52.512;13.300;2023-03-11T14:58:09;5.20;99.90
28244;DHT22;15510;52.512;13.300;2023-03-11T15:00:43;5.10;99.90
28244;DHT22;15510;52.512;13.300;2023-03-11T15:05:54;5.20;99.90
28244;DHT22;15510;52.512;13.300;2023-03-11T15:08:23;5.30;99.90
28244;DHT22;15510;52.512;13.300;2023-03-11T15:11:07;5.50;99.90
28244;DHT22;15510;52.512;13.300;2023-03-11T15:13:44;5.60;99.90
28244;DHT22;15510;52.512;13.300;2023-03-11T15:16:31;5.40;99.90
28244;DHT22;15510;52.512;13.300;2023-03-11T15:21:46;5.00;99.90
28244;DHT22;15510;52.512;13.300;2023-03-11T15:24:25;4.90;99.90
28244;DHT22;15510;52.512;13.300;2023-03-11T15:27:06;4.80;99.90
28244;DHT22;15510;52.512;13.300;2023-03-11T15:29:33;4.70;99.90
28244;DHT22;15510;52.512;13.300;2023-03-11T15:31:59;4.60;99.90
28244;DHT22;15510;52.512;13.300;2023-03-11T15:34:45;4.60;99.90
28244;DHT22;15510;52.512;13.300;2023-03-11T15:37:23;4.40;99.90
28244;DHT22;15510;52.512;13.300;2023-03-11T15:39:50;4.40;99.90
28244;DHT22;15510;52.512;13.300;2023-03-11T15:42:22;4.30;99.90
28244;DHT22;15510;52.512;13.300;2023-03-11T15:47:17;4.40;99.90
28244;DHT22;15510;52.512;13.300;2023-03-11T15:49:43;4.30;99.90
28244;DHT22;15510;52.512;13.300;2023-03-11T15:52:09;4.20;99.90
28244;DHT22;15510;52.512;13.300;2023-03-11T15:54:36;4.10;99.90
28244;DHT22;15510;52.512;13.300;2023-03-11T15:57:05;4.10;99.90
28244;DHT22;15510;52.512;13.300;2023-03-11T15:59:32;4.00;99.90
28244;DHT22;15510;52.512;13.300;2023-03-11T16:01:58;4.00;99.90
28244;DHT22;15510;52.512;13.300;2023-03-11T16:04:24;3.90;99.90
28244;DHT22;15510;52.512;13.300;2023-03-11T16:06:50;3.90;99.90
28244;DHT22;15510;52.512;13.300;2023-03-11T16:09:16;3.90;99.90
28244;DHT22;15510;52.512;13.300;2023-03-11T16:11:42;3.90;99.90
28244;DHT22;15510;52.512;13.300;2023-03-11T16:14:16;3.90;99.90
28244;DHT22;15510;52.512;13.300;2023-03-11T16:16:43;3.90;99.90
28244;DHT22;15510;52.512;13.300;2023-03-11T16:19:09;3.90;99.90
28244;DHT22;15510;52.512;13.300;2023-03-11T16:21:43;3.80;99.90
28244;DHT22;15510;52.512;13.300;2023-03-11T16:24:19;3.90;99.90
28244;DHT22;15510;52.512;13.300;2023-03-11T16:26:45;4.00;99.90
28244;DHT22;15510;52.512;13.300;2023-03-11T16:29:11;3.90;99.90
28244;DHT22;15510;52.512;13.300;2023-03-11T16:31:39;3.90;99.90
28244;DHT22;15510;52.512;13.300;2023-03-11T16:34:05;3.90;99.90
28244;DHT22;15510;52.512;13.300;2023-03-11T16:36:31;3.80;99.90
28244;DHT22;15510;52.512;13.300;2023-03-11T16:38:57;3.80;99.90
28244;DHT22;15510;52.512;13.300;2023-03-11T16:41:22;3.90;99.90
28244;DHT22;15510;52.512;13.300;2023-03-11T16:43:48;3.90;99.90
28244;DHT22;15510;52.512;13.300;2023-03-11T16:46:14;3.90;99.90
28244;DHT22;15510;52.512;13.300;2023-03-11T16:48:40;3.90;99.90
28244;DHT22;15510;52.512;13.300;2023-03-11T16:51:05;3.90;99.90
28244;DHT22;15510;52.512;13.300;2023-03-11T16:53:31;3.80;99.90
28244;DHT22;15510;52.512;13.300;2023-03-11T16:55:57;3.70;99.90
28244;DHT22;15510;52.512;13.300;2023-03-11T16:58:24;3.70;99.90
28244;DHT22;15510;52.512;13.300;2023-03-11T17:00:51;3.80;99.90
28244;DHT22;15510;52.512;13.300;2023-03-11T17:03:17;3.80;99.90
28244;DHT22;15510;52.512;13.300;2023-03-11T17:05:43;3.80;99.90
28244;DHT22;15510;52.512;13.300;2023-03-11T17:08:09;3.90;99.90
28244;DHT22;15510;52.512;13.300;2023-03-11T17:10:40;3.80;99.90
28244;DHT22;15510;52.512;13.300;2023-03-11T17:13:09;3.80;99.90
28244;DHT22;15510;52.512;13.300;2023-03-11T17:15:35;3.70;99.90
28244;DHT22;15510;52.512;13.300;2023-03-11T17:18:05;3.60;99.90
28244;DHT22;15510;52.512;13.300;2023-03-11T17:20:32;3.50;99.90
28244;DHT22;15510;52.512;13.300;2023-03-11T17:22:58;3.40;99.90
28244;DHT22;15510;52.512;13.300;2023-03-11T17:25:24;3.40;99.90
28244;DHT22;15510;52.512;13.300;2023-03-11T17:27:50;3.30;99.90
28244;DHT22;15510;52.512;13.300;2023-03-11T17:30:16;3.20;99.90
28244;DHT22;15510;52.512;13.300;2023-03-11T17:32:42;3.10;99.90
28244;DHT22;15510;52.512;13.300;2023-03-11T17:35:09;3.10;99.90
28244;DHT22;15510;52.512;13.300;2023-03-11T17:37:34;3.10;99.90